createdAt,value
2017-01-24T00:00:18.573Z,38.98
2017-01-24T00:00:59.220Z,39.2
2017-01-24T00:01:39.865Z,39.2
2017-01-24T00:02:20.502Z,39.2
2017-01-24T00:03:01.134Z,39.08
2017-01-24T00:03:41.775Z,39.29
2017-01-24T00:04:22.412Z,39.28
2017-01-24T00:05:03.042Z,39.01
2017-01-24T00:05:43.681Z,39.18
2017-01-24T00:06:24.367Z,39.08
2017-01-24T00:07:05.002Z,39.1
2017-01-24T00:07:45.651Z,39.18
2017-01-24T00:08:26.302Z,39.39
2017-01-24T00:09:06.939Z,39.18
2017-01-24T00:09:47.611Z,39.37
2017-01-24T00:10:28.248Z,39.39
2017-01-24T00:11:08.873Z,39.37
2017-01-24T00:11:49.512Z,39.77
2017-01-24T00:12:30.155Z,39.39
2017-01-24T00:13:10.790Z,39.75
2017-01-24T00:13:51.477Z,39.77
2017-01-24T00:14:32.126Z,39.75
2017-01-24T00:15:12.767Z,39.75
2017-01-24T00:15:53.423Z,39.85
2017-01-24T00:16:34.048Z,39.85
2017-01-24T00:17:14.724Z,39.94
2017-01-24T00:17:55.390Z,39.65
2017-01-24T00:18:36.032Z,39.65
2017-01-24T00:19:16.693Z,39.85
2017-01-24T00:19:58.313Z,39.85
2017-01-24T00:20:38.935Z,39.85
2017-01-24T00:21:19.573Z,39.75
2017-01-24T00:22:00.321Z,39.65
2017-01-24T00:22:40.945Z,40.04
2017-01-24T00:23:21.586Z,39.77
2017-01-24T00:24:02.208Z,39.47
2017-01-24T00:24:42.837Z,39.85
2017-01-24T00:25:23.471Z,39.56
2017-01-24T00:26:04.099Z,39.65
2017-01-24T00:26:44.751Z,39.65
2017-01-24T00:27:25.383Z,39.65
2017-01-24T00:28:06.011Z,39.56
2017-01-24T00:28:46.717Z,39.75
2017-01-24T00:29:27.345Z,39.75
2017-01-24T00:30:07.974Z,39.94
2017-01-24T00:30:48.649Z,39.85
2017-01-24T00:31:29.272Z,39.85
2017-01-24T00:32:09.912Z,39.85
2017-01-24T00:32:50.578Z,40.04
2017-01-24T00:33:31.225Z,39.85
2017-01-24T00:34:11.876Z,39.85
2017-01-24T00:34:52.499Z,39.75
2017-01-24T00:35:33.132Z,39.75
2017-01-24T00:36:13.779Z,39.85
2017-01-24T00:36:54.398Z,39.85
2017-01-24T00:37:35.023Z,39.85
2017-01-24T00:38:15.650Z,39.65
2017-01-24T00:38:56.286Z,39.75
2017-01-24T00:39:36.928Z,39.65
2017-01-24T00:40:17.563Z,39.65
2017-01-24T00:40:58.199Z,39.75
2017-01-24T00:41:38.844Z,39.85
2017-01-24T00:42:19.472Z,39.94
2017-01-24T00:43:00.101Z,39.75
2017-01-24T00:43:40.745Z,39.65
2017-01-24T00:44:21.364Z,39.94
2017-01-24T00:45:01.997Z,39.94
2017-01-24T00:45:42.637Z,40.04
2017-01-24T00:46:23.269Z,40.04
2017-01-24T00:47:03.904Z,40.04
2017-01-24T00:47:44.589Z,39.85
2017-01-24T00:48:25.228Z,39.94
2017-01-24T00:49:05.856Z,40.04
2017-01-24T00:49:46.515Z,39.75
2017-01-24T00:50:27.138Z,39.94
2017-01-24T00:51:07.778Z,39.94
2017-01-24T00:51:48.479Z,40.04
2017-01-24T00:52:29.106Z,40.04
2017-01-24T00:53:09.761Z,40.04
2017-01-24T00:53:50.404Z,40.14
2017-01-24T00:54:31.044Z,40.14
2017-01-24T00:55:11.667Z,40.23
2017-01-24T00:55:52.302Z,40.33
2017-01-24T00:56:32.962Z,40.23
2017-01-24T00:57:13.613Z,40.33
2017-01-24T00:57:54.234Z,40.33
2017-01-24T00:58:34.914Z,40.14
2017-01-24T00:59:15.538Z,40.14
2017-01-24T00:59:56.167Z,40.23
2017-01-24T01:00:36.877Z,40.04
2017-01-24T01:01:17.516Z,40.33
2017-01-24T01:01:58.135Z,40.23
2017-01-24T01:02:38.771Z,40.33
2017-01-24T01:03:19.396Z,40.14
2017-01-24T01:04:00.031Z,40.23
2017-01-24T01:04:40.654Z,40.23
2017-01-24T01:05:21.286Z,40.61
2017-01-24T01:06:01.939Z,40.52
2017-01-24T01:06:42.592Z,40.33
2017-01-24T01:07:23.217Z,40.33
2017-01-24T01:08:03.941Z,40.23
2017-01-24T01:08:44.596Z,40.33
2017-01-24T01:09:25.359Z,40.61
2017-01-24T01:10:06.126Z,40.42
2017-01-24T01:10:46.822Z,40.42
2017-01-24T01:11:27.452Z,40.61
2017-01-24T01:12:08.081Z,40.81
2017-01-24T01:12:48.750Z,40.33
2017-01-24T01:13:29.392Z,40.81
2017-01-24T01:14:10.024Z,40.61
2017-01-24T01:14:50.748Z,40.71
2017-01-24T01:15:31.398Z,40.61
2017-01-24T01:16:12.064Z,40.61
2017-01-24T01:16:52.709Z,40.61
2017-01-24T01:17:33.369Z,40.42
2017-01-24T01:18:13.975Z,40.52
2017-01-24T01:18:54.702Z,40.71
2017-01-24T01:19:35.324Z,40.61
2017-01-24T01:20:15.956Z,40.42
2017-01-24T01:20:56.669Z,40.71
2017-01-24T01:21:37.295Z,40.42
2017-01-24T01:22:17.932Z,40.61
2017-01-24T01:22:58.567Z,40.71
2017-01-24T01:23:39.225Z,40.71
2017-01-24T01:24:19.857Z,40.71
2017-01-24T01:25:00.482Z,40.71
2017-01-24T01:25:41.117Z,40.71
2017-01-24T01:26:21.750Z,40.81
2017-01-24T01:27:02.382Z,41
2017-01-24T01:27:43.028Z,40.9
2017-01-24T01:28:23.652Z,40.61
2017-01-24T01:29:04.285Z,40.71
2017-01-24T01:29:44.914Z,40.81
2017-01-24T01:30:25.540Z,40.9
2017-01-24T01:31:06.217Z,40.61
2017-01-24T01:31:46.854Z,41
2017-01-24T01:32:27.475Z,40.9
2017-01-24T01:33:08.124Z,40.81
2017-01-24T01:33:48.771Z,40.9
2017-01-24T01:34:29.397Z,40.71
2017-01-24T01:35:10.029Z,40.71
2017-01-24T01:35:50.650Z,40.9
2017-01-24T01:36:31.324Z,40.81
2017-01-24T01:37:12.031Z,40.71
2017-01-24T01:37:52.676Z,41
2017-01-24T01:38:33.298Z,40.9
2017-01-24T01:39:13.937Z,41
2017-01-24T01:39:54.586Z,40.9
2017-01-24T01:40:35.216Z,40.71
2017-01-24T01:41:15.845Z,41
2017-01-24T01:41:56.515Z,40.9
2017-01-24T01:42:37.158Z,40.9
2017-01-24T01:43:17.803Z,40.9
2017-01-24T01:43:58.514Z,40.9
2017-01-24T01:44:39.147Z,40.9
2017-01-24T01:45:19.772Z,40.9
2017-01-24T01:46:00.466Z,40.9
2017-01-24T01:46:41.094Z,41
2017-01-24T01:47:21.746Z,40.9
2017-01-24T01:48:02.371Z,41.09
2017-01-24T01:48:42.997Z,41
2017-01-24T01:49:23.642Z,40.9
2017-01-24T01:50:04.330Z,41
2017-01-24T01:50:44.955Z,41.09
2017-01-24T01:51:25.585Z,41
2017-01-24T01:52:06.296Z,41.19
2017-01-24T01:52:46.924Z,41.19
2017-01-24T01:53:27.563Z,41.19
2017-01-24T01:54:08.198Z,41.09
2017-01-24T01:54:48.820Z,41
2017-01-24T01:55:29.457Z,41.38
2017-01-24T01:56:10.086Z,41.28
2017-01-24T01:56:50.730Z,41.28
2017-01-24T01:57:31.390Z,41.48
2017-01-24T01:58:12.029Z,41.48
2017-01-24T01:58:52.668Z,41.38
2017-01-24T01:59:33.287Z,41.38
2017-01-24T02:00:13.944Z,41.48
2017-01-24T02:00:54.580Z,41.57
2017-01-24T02:01:35.232Z,41.48
2017-01-24T02:02:15.861Z,41.48
2017-01-24T02:02:56.496Z,41.48
2017-01-24T02:03:37.197Z,41.48
2017-01-24T02:04:17.826Z,41.57
2017-01-24T02:04:58.453Z,41.48
2017-01-24T02:05:39.072Z,41.57
2017-01-24T02:06:19.708Z,41.57
2017-01-24T02:07:00.361Z,41.57
2017-01-24T02:07:40.989Z,41.48
2017-01-24T02:08:21.612Z,41.67
2017-01-24T02:09:02.288Z,41.77
2017-01-24T02:09:43.009Z,41.77
2017-01-24T02:10:23.665Z,41.67
2017-01-24T02:11:04.328Z,41.67
2017-01-24T02:11:45.025Z,41.57
2017-01-24T02:12:25.699Z,41.67
2017-01-24T02:13:06.361Z,41.86
2017-01-24T02:13:47.087Z,41.67
2017-01-24T02:14:27.815Z,41.77
2017-01-24T02:15:08.539Z,41.77
2017-01-24T02:15:49.251Z,41.67
2017-01-24T02:16:30.082Z,41.77
2017-01-24T02:17:10.794Z,41.86
2017-01-24T02:17:51.501Z,41.77
2017-01-24T02:18:32.229Z,41.77
2017-01-24T02:19:13.079Z,41.77
2017-01-24T02:19:53.800Z,41.96
2017-01-24T02:20:34.521Z,41.96
2017-01-24T02:21:15.219Z,42.05
2017-01-24T02:21:56.946Z,42.05
2017-01-24T02:22:37.652Z,42.05
2017-01-24T02:23:18.360Z,42.05
2017-01-24T02:23:59.078Z,42.05
2017-01-24T02:24:39.793Z,42.14
2017-01-24T02:25:20.521Z,42.05
2017-01-24T02:26:01.257Z,42.14
2017-01-24T02:26:42.009Z,42.05
2017-01-24T02:27:22.749Z,42.05
2017-01-24T02:28:03.463Z,42.05
2017-01-24T02:28:44.270Z,42.14
2017-01-24T02:29:24.992Z,42.24
2017-01-24T02:30:05.701Z,42.32
2017-01-24T02:30:46.400Z,42.34
2017-01-24T02:31:27.112Z,42.14
2017-01-24T02:32:07.828Z,42.24
2017-01-24T02:32:48.527Z,42.34
2017-01-24T02:33:29.251Z,42.44
2017-01-24T02:34:09.971Z,42.44
2017-01-24T02:34:50.690Z,42.24
2017-01-24T02:35:31.439Z,42.44
2017-01-24T02:36:12.147Z,42.24
2017-01-24T02:36:52.924Z,42.34
2017-01-24T02:37:33.588Z,42.34
2017-01-24T02:38:14.240Z,42.44
2017-01-24T02:38:54.910Z,42.44
2017-01-24T02:39:35.546Z,42.63
2017-01-24T02:40:16.220Z,42.63
2017-01-24T02:40:56.849Z,42.53
2017-01-24T02:41:37.490Z,42.63
2017-01-24T02:42:18.116Z,42.44
2017-01-24T02:42:58.753Z,42.6
2017-01-24T02:43:39.378Z,42.72
2017-01-24T02:44:20.014Z,42.53
2017-01-24T02:45:00.647Z,42.53
2017-01-24T02:45:41.284Z,42.63
2017-01-24T02:46:21.950Z,42.44
2017-01-24T02:47:02.572Z,42.63
2017-01-24T02:47:43.199Z,42.53
2017-01-24T02:48:23.825Z,42.53
2017-01-24T02:49:04.445Z,42.53
2017-01-24T02:49:45.095Z,42.82
2017-01-24T02:50:25.743Z,42.6
2017-01-24T02:51:06.362Z,42.44
2017-01-24T02:51:46.996Z,42.53
2017-01-24T02:52:27.631Z,42.82
2017-01-24T02:53:08.259Z,42.82
2017-01-24T02:53:48.893Z,42.72
2017-01-24T02:54:29.525Z,42.7
2017-01-24T02:55:10.154Z,42.82
2017-01-24T02:55:50.847Z,42.7
2017-01-24T02:56:31.468Z,42.82
2017-01-24T02:57:12.096Z,42.72
2017-01-24T02:57:52.721Z,42.72
2017-01-24T02:58:33.377Z,42.82
2017-01-24T02:59:14.017Z,42.99
2017-01-24T02:59:54.690Z,43.01
2017-01-24T03:00:35.322Z,42.8
2017-01-24T03:01:15.947Z,42.8
2017-01-24T03:01:56.624Z,42.72
2017-01-24T03:02:37.260Z,42.8
2017-01-24T03:03:17.884Z,43.49
2017-01-24T03:03:58.504Z,42.99
2017-01-24T03:04:39.140Z,43.3
2017-01-24T03:05:19.781Z,43.2
2017-01-24T03:06:00.510Z,42.91
2017-01-24T03:06:41.134Z,43.2
2017-01-24T03:07:21.766Z,43.18
2017-01-24T03:08:02.462Z,43.2
2017-01-24T03:08:43.099Z,43.1
2017-01-24T03:09:23.753Z,43.01
2017-01-24T03:10:04.467Z,42.82
2017-01-24T03:10:45.111Z,43.18
2017-01-24T03:11:25.728Z,43.39
2017-01-24T03:12:06.428Z,43.2
2017-01-24T03:12:47.062Z,43.2
2017-01-24T03:13:27.693Z,43.2
2017-01-24T03:14:08.420Z,43.18
2017-01-24T03:14:49.047Z,43.18
2017-01-24T03:15:29.686Z,43.39
2017-01-24T03:16:10.307Z,43.01
2017-01-24T03:16:50.983Z,43.2
2017-01-24T03:17:31.603Z,43.2
2017-01-24T03:18:12.302Z,43.18
2017-01-24T03:18:52.922Z,43.2
2017-01-24T03:19:33.556Z,43.2
2017-01-24T03:20:14.276Z,43.2
2017-01-24T03:20:54.914Z,43.01
2017-01-24T03:21:35.543Z,43.1
2017-01-24T03:22:16.178Z,43.1
2017-01-24T03:22:56.810Z,43.1
2017-01-24T03:23:37.437Z,43.1
2017-01-24T03:24:18.075Z,42.99
2017-01-24T03:24:58.732Z,42.99
2017-01-24T03:25:39.362Z,43.2
2017-01-24T03:26:19.985Z,43.1
2017-01-24T03:27:00.607Z,43.1
2017-01-24T03:27:41.239Z,43.2
2017-01-24T03:28:21.889Z,43.27
2017-01-24T03:29:02.598Z,43.18
2017-01-24T03:29:43.217Z,43.27
2017-01-24T03:30:23.843Z,43.3
2017-01-24T03:31:04.561Z,43.3
2017-01-24T03:31:45.203Z,42.99
2017-01-24T03:32:25.809Z,43.2
2017-01-24T03:33:06.517Z,43.1
2017-01-24T03:33:47.171Z,43.2
2017-01-24T03:34:27.812Z,43.3
2017-01-24T03:35:08.442Z,43.01
2017-01-24T03:35:49.064Z,42.91
2017-01-24T03:36:29.689Z,43.3
2017-01-24T03:37:10.325Z,43.08
2017-01-24T03:37:50.945Z,43.49
2017-01-24T03:38:31.580Z,43.27
2017-01-24T03:39:12.221Z,43.01
2017-01-24T03:39:54.177Z,43.27
2017-01-24T03:40:34.816Z,43.18
2017-01-24T03:41:15.543Z,43.27
2017-01-24T03:41:56.178Z,43.37
2017-01-24T03:42:36.803Z,43.1
2017-01-24T03:43:17.422Z,43.27
2017-01-24T03:43:58.095Z,43.3
2017-01-24T03:44:38.721Z,43.3
2017-01-24T03:45:19.355Z,43.01
2017-01-24T03:46:00.025Z,42.99
2017-01-24T03:46:40.652Z,43.49
2017-01-24T03:47:21.266Z,43.08
2017-01-24T03:48:01.958Z,43.08
2017-01-24T03:48:42.612Z,43.08
2017-01-24T03:49:23.264Z,43.37
2017-01-24T03:50:03.897Z,43.39
2017-01-24T03:50:44.523Z,43.3
2017-01-24T03:51:25.171Z,43.59
2017-01-24T03:52:05.812Z,43.59
2017-01-24T03:52:46.435Z,43.49
2017-01-24T03:53:27.188Z,43.59
2017-01-24T03:54:07.827Z,43.77
2017-01-24T03:54:48.448Z,43.49
2017-01-24T03:55:29.087Z,43.37
2017-01-24T03:56:09.751Z,43.59
2017-01-24T03:56:50.378Z,43.18
2017-01-24T03:57:31.004Z,43.3
2017-01-24T03:58:11.687Z,43.01
2017-01-24T03:58:52.314Z,43.59
2017-01-24T03:59:32.953Z,43.39
2017-01-24T04:00:13.620Z,43.47
2017-01-24T04:00:54.257Z,43.39
2017-01-24T04:01:34.879Z,43.59
2017-01-24T04:02:15.507Z,43.68
2017-01-24T04:02:56.129Z,43.39
2017-01-24T04:03:36.776Z,43.56
2017-01-24T04:04:17.412Z,43.39
2017-01-24T04:04:58.034Z,43.3
2017-01-24T04:05:38.720Z,43.68
2017-01-24T04:06:19.351Z,43.66
2017-01-24T04:06:59.985Z,43.47
2017-01-24T04:07:40.687Z,43.37
2017-01-24T04:08:21.329Z,43.59
2017-01-24T04:09:01.955Z,43.37
2017-01-24T04:09:42.589Z,43.39
2017-01-24T04:10:23.216Z,43.1
2017-01-24T04:11:03.868Z,43.49
2017-01-24T04:11:44.511Z,43.3
2017-01-24T04:12:25.144Z,43.47
2017-01-24T04:13:05.769Z,43.68
2017-01-24T04:13:46.416Z,43.59
2017-01-24T04:14:27.049Z,43.47
2017-01-24T04:15:07.677Z,43.39
2017-01-24T04:15:48.319Z,43.59
2017-01-24T04:16:28.941Z,43.59
2017-01-24T04:17:09.641Z,43.47
2017-01-24T04:17:50.278Z,43.37
2017-01-24T04:18:30.901Z,43.56
2017-01-24T04:19:11.588Z,43.47
2017-01-24T04:19:52.235Z,43.47
2017-01-24T04:20:32.861Z,43.56
2017-01-24T04:21:13.493Z,43.59
2017-01-24T04:21:54.188Z,43.49
2017-01-24T04:22:34.832Z,43.59
2017-01-24T04:23:15.464Z,43.56
2017-01-24T04:23:56.143Z,43.37
2017-01-24T04:24:36.781Z,43.56
2017-01-24T04:25:17.412Z,43.56
2017-01-24T04:25:58.065Z,43.3
2017-01-24T04:26:38.704Z,43.47
2017-01-24T04:27:19.339Z,43.37
2017-01-24T04:27:59.985Z,43.37
2017-01-24T04:28:40.641Z,43.47
2017-01-24T04:29:21.284Z,43.56
2017-01-24T04:30:01.924Z,43.47
2017-01-24T04:30:42.565Z,43.47
2017-01-24T04:31:23.185Z,43.49
2017-01-24T04:32:03.832Z,43.49
2017-01-24T04:32:44.458Z,43.68
2017-01-24T04:33:25.095Z,43.39
2017-01-24T04:34:05.751Z,43.59
2017-01-24T04:34:46.400Z,43.56
2017-01-24T04:35:27.053Z,43.68
2017-01-24T04:36:07.716Z,43.39
2017-01-24T04:36:48.360Z,43.3
2017-01-24T04:37:29.016Z,43.68
2017-01-24T04:38:09.694Z,43.59
2017-01-24T04:38:50.320Z,43.59
2017-01-24T04:39:30.945Z,43.01
2017-01-24T04:40:11.640Z,43.49
2017-01-24T04:40:52.278Z,43.66
2017-01-24T04:41:32.973Z,43.39
2017-01-24T04:42:13.599Z,43.3
2017-01-24T04:42:54.225Z,43.59
2017-01-24T04:43:34.848Z,43.59
2017-01-24T04:44:15.479Z,43.37
2017-01-24T04:44:56.102Z,43.59
2017-01-24T04:45:36.796Z,43.39
2017-01-24T04:46:17.435Z,43.49
2017-01-24T04:46:58.060Z,43.39
2017-01-24T04:47:38.809Z,43.3
2017-01-24T04:48:19.539Z,43.49
2017-01-24T04:49:00.169Z,43.3
2017-01-24T04:49:40.800Z,43.49
2017-01-24T04:50:21.437Z,43.39
2017-01-24T04:51:02.074Z,43.66
2017-01-24T04:51:42.720Z,43.3
2017-01-24T04:52:23.345Z,43.37
2017-01-24T04:53:03.986Z,43.49
2017-01-24T04:53:44.614Z,43.1
2017-01-24T04:54:25.242Z,43.49
2017-01-24T04:55:05.861Z,43.49
2017-01-24T04:55:46.596Z,43.3
2017-01-24T04:56:27.233Z,43.49
2017-01-24T04:57:07.859Z,43.39
2017-01-24T04:57:48.505Z,43.49
2017-01-24T04:58:29.142Z,43.39
2017-01-24T04:59:09.788Z,43.68
2017-01-24T04:59:50.390Z,43.39
2017-01-24T05:00:31.015Z,43.68
2017-01-24T05:01:11.661Z,43.68
2017-01-24T05:01:52.283Z,43.68
2017-01-24T05:02:32.949Z,43.56
2017-01-24T05:03:13.581Z,43.56
2017-01-24T05:03:54.227Z,43.76
2017-01-24T05:04:34.868Z,43.66
2017-01-24T05:05:15.511Z,43.47
2017-01-24T05:05:56.136Z,43.85
2017-01-24T05:06:36.868Z,43.85
2017-01-24T05:07:17.520Z,43.66
2017-01-24T05:07:58.146Z,43.56
2017-01-24T05:08:38.781Z,43.85
2017-01-24T05:09:19.410Z,43.85
2017-01-24T05:10:00.041Z,43.76
2017-01-24T05:10:40.756Z,43.66
2017-01-24T05:11:21.411Z,43.56
2017-01-24T05:12:02.058Z,43.56
2017-01-24T05:12:42.714Z,43.76
2017-01-24T05:13:23.321Z,43.76
2017-01-24T05:14:03.965Z,43.95
2017-01-24T05:14:44.593Z,43.87
2017-01-24T05:15:25.224Z,43.66
2017-01-24T05:16:05.867Z,43.66
2017-01-24T05:16:46.489Z,43.37
2017-01-24T05:17:27.133Z,43.39
2017-01-24T05:18:07.833Z,43.37
2017-01-24T05:18:48.467Z,43.76
2017-01-24T05:19:29.092Z,43.66
2017-01-24T05:20:09.741Z,43.66
2017-01-24T05:20:50.384Z,43.18
2017-01-24T05:21:31.016Z,43.47
2017-01-24T05:22:11.656Z,43.27
2017-01-24T05:22:52.291Z,43.37
2017-01-24T05:23:32.922Z,43.95
2017-01-24T05:24:13.584Z,43.95
2017-01-24T05:24:54.206Z,43.95
2017-01-24T05:25:34.850Z,43.85
2017-01-24T05:26:15.562Z,43.66
2017-01-24T05:26:56.207Z,43.56
2017-01-24T05:27:36.874Z,43.56
2017-01-24T05:28:17.586Z,43.56
2017-01-24T05:28:58.267Z,43.37
2017-01-24T05:29:38.895Z,43.95
2017-01-24T05:30:19.543Z,43.66
2017-01-24T05:31:00.193Z,43.47
2017-01-24T05:31:40.826Z,43.76
2017-01-24T05:32:21.537Z,43.76
2017-01-24T05:33:02.213Z,43.47
2017-01-24T05:33:42.903Z,43.85
2017-01-24T05:34:23.714Z,43.66
2017-01-24T05:35:04.328Z,43.76
2017-01-24T05:35:45.084Z,43.76
2017-01-24T05:36:25.798Z,43.66
2017-01-24T05:37:06.394Z,43.37
2017-01-24T05:37:47.042Z,43.27
2017-01-24T05:38:27.720Z,43.76
2017-01-24T05:39:08.368Z,43.76
2017-01-24T05:39:49.086Z,43.66
2017-01-24T05:40:29.715Z,43.85
2017-01-24T05:41:10.362Z,43.95
2017-01-24T05:41:51.011Z,43.47
2017-01-24T05:42:31.710Z,43.76
2017-01-24T05:43:12.370Z,43.47
2017-01-24T05:43:53.004Z,43.95
2017-01-24T05:44:33.685Z,43.66
2017-01-24T05:45:14.331Z,43.76
2017-01-24T05:45:54.978Z,43.85
2017-01-24T05:46:35.602Z,43.77
2017-01-24T05:47:16.243Z,43.56
2017-01-24T05:47:56.990Z,43.56
2017-01-24T05:48:37.674Z,43.47
2017-01-24T05:49:18.332Z,43.37
2017-01-24T05:49:59.044Z,43.85
2017-01-24T05:50:39.686Z,43.47
2017-01-24T05:51:20.340Z,43.66
2017-01-24T05:52:01.005Z,43.56
2017-01-24T05:52:41.673Z,43.56
2017-01-24T05:53:22.360Z,43.37
2017-01-24T05:54:02.991Z,43.95
2017-01-24T05:54:43.622Z,43.37
2017-01-24T05:55:24.270Z,43.37
2017-01-24T05:56:04.926Z,43.66
2017-01-24T05:56:45.682Z,43.66
2017-01-24T05:57:26.357Z,43.56
2017-01-24T05:58:07.055Z,43.66
2017-01-24T05:58:47.753Z,43.56
2017-01-24T05:59:28.468Z,43.47
2017-01-24T06:00:09.107Z,43.47
2017-01-24T06:00:49.738Z,43.47
2017-01-24T06:01:30.369Z,43.56
2017-01-24T06:02:11.015Z,43.56
2017-01-24T06:02:51.645Z,43.37
2017-01-24T06:03:32.302Z,43.47
2017-01-24T06:04:12.997Z,43.47
2017-01-24T06:04:53.648Z,43.47
2017-01-24T06:05:34.286Z,43.56
2017-01-24T06:06:14.998Z,43.47
2017-01-24T06:06:55.638Z,43.37
2017-01-24T06:07:36.294Z,43.47
2017-01-24T06:08:16.989Z,43.47
2017-01-24T06:08:57.683Z,43.47
2017-01-24T06:09:38.428Z,43.47
2017-01-24T06:10:19.821Z,43.56
2017-01-24T06:10:59.757Z,43.56
2017-01-24T06:11:40.431Z,43.56
2017-01-24T06:12:21.060Z,43.56
2017-01-24T06:13:01.709Z,43.37
2017-01-24T06:13:42.355Z,43.56
2017-01-24T06:14:22.989Z,43.56
2017-01-24T06:15:03.669Z,43.56
2017-01-24T06:15:44.275Z,43.47
2017-01-24T06:16:24.998Z,43.56
2017-01-24T06:17:05.658Z,43.47
2017-01-24T06:17:46.302Z,43.56
2017-01-24T06:18:27.087Z,43.56
2017-01-24T06:19:07.746Z,43.37
2017-01-24T06:19:48.383Z,43.56
2017-01-24T06:20:29.098Z,43.59
2017-01-24T06:21:09.790Z,43.47
2017-01-24T06:21:50.435Z,43.56
2017-01-24T06:22:31.117Z,43.37
2017-01-24T06:23:11.715Z,43.47
2017-01-24T06:23:52.347Z,43.56
2017-01-24T06:24:32.972Z,43.37
2017-01-24T06:25:13.653Z,43.66
2017-01-24T06:25:54.298Z,43.56
2017-01-24T06:26:34.931Z,43.56
2017-01-24T06:27:15.630Z,43.56
2017-01-24T06:27:56.315Z,43.37
2017-01-24T06:28:36.919Z,43.47
2017-01-24T06:29:17.537Z,43.47
2017-01-24T06:29:58.177Z,43.47
2017-01-24T06:30:38.817Z,43.37
2017-01-24T06:31:19.485Z,43.37
2017-01-24T06:32:00.131Z,43.47
2017-01-24T06:32:40.783Z,43.56
2017-01-24T06:33:21.435Z,43.66
2017-01-24T06:34:02.062Z,43.76
2017-01-24T06:34:42.702Z,43.66
2017-01-24T06:35:23.427Z,43.85
2017-01-24T06:36:04.082Z,43.76
2017-01-24T06:36:44.704Z,43.47
2017-01-24T06:37:25.373Z,43.95
2017-01-24T06:38:06.022Z,43.95
2017-01-24T06:38:46.650Z,43.47
2017-01-24T06:39:27.424Z,43.95
2017-01-24T06:40:08.051Z,43.95
2017-01-24T06:40:48.674Z,43.76
2017-01-24T06:41:29.381Z,43.56
2017-01-24T06:42:10.016Z,43.85
2017-01-24T06:42:50.641Z,43.85
2017-01-24T06:43:31.325Z,43.47
2017-01-24T06:44:11.962Z,43.85
2017-01-24T06:44:52.591Z,43.56
2017-01-24T06:45:33.262Z,43.66
2017-01-24T06:46:13.906Z,43.85
2017-01-24T06:46:54.550Z,43.95
2017-01-24T06:47:35.784Z,43.76
2017-01-24T06:48:16.450Z,43.76
2017-01-24T06:48:57.057Z,43.85
2017-01-24T06:49:37.767Z,43.76
2017-01-24T06:50:18.304Z,43.95
2017-01-24T06:50:58.932Z,43.76
2017-01-24T06:51:39.566Z,43.56
2017-01-24T06:52:20.203Z,43.47
2017-01-24T06:53:00.848Z,43.56
2017-01-24T06:53:41.502Z,43.37
2017-01-24T06:54:22.152Z,43.47
2017-01-24T06:55:02.809Z,43.27
2017-01-24T06:55:43.444Z,43.56
2017-01-24T06:56:24.062Z,43.47
2017-01-24T06:57:04.748Z,43.56
2017-01-24T06:57:45.377Z,43.47
2017-01-24T06:58:26.005Z,43.56
2017-01-24T06:59:06.715Z,43.37
2017-01-24T06:59:47.335Z,43.47
2017-01-24T07:00:27.964Z,43.47
2017-01-24T07:01:08.605Z,43.47
2017-01-24T07:01:49.253Z,43.47
2017-01-24T07:02:29.879Z,43.76
2017-01-24T07:03:10.516Z,43.66
2017-01-24T07:03:51.136Z,43.47
2017-01-24T07:04:31.772Z,43.66
2017-01-24T07:05:12.512Z,43.85
2017-01-24T07:05:53.148Z,43.76
2017-01-24T07:06:33.800Z,43.95
2017-01-24T07:07:14.525Z,43.76
2017-01-24T07:07:55.158Z,43.56
2017-01-24T07:08:35.797Z,43.66
2017-01-24T07:09:16.513Z,43.27
2017-01-24T07:09:57.135Z,43.47
2017-01-24T07:10:37.770Z,43.47
2017-01-24T07:11:18.473Z,43.56
2017-01-24T07:11:59.143Z,43.56
2017-01-24T07:12:39.774Z,43.47
2017-01-24T07:13:20.481Z,43.76
2017-01-24T07:14:01.119Z,43.56
2017-01-24T07:14:41.763Z,43.47
2017-01-24T07:15:22.473Z,43.56
2017-01-24T07:16:03.085Z,43.85
2017-01-24T07:16:43.711Z,43.56
2017-01-24T07:17:24.349Z,44.04
2017-01-24T07:18:05.001Z,44.04
2017-01-24T07:18:45.638Z,43.95
2017-01-24T07:19:26.254Z,44.04
2017-01-24T07:20:06.888Z,44.04
2017-01-24T07:20:47.527Z,44.04
2017-01-24T07:21:28.151Z,44.23
2017-01-24T07:22:08.870Z,44.23
2017-01-24T07:22:49.517Z,44.13
2017-01-24T07:23:30.139Z,44.33
2017-01-24T07:24:10.887Z,44.13
2017-01-24T07:24:51.530Z,44.13
2017-01-24T07:25:32.155Z,44.33
2017-01-24T07:26:12.856Z,44.23
2017-01-24T07:26:53.492Z,44.13
2017-01-24T07:27:34.140Z,44.43
2017-01-24T07:28:14.896Z,44.23
2017-01-24T07:28:55.538Z,44.23
2017-01-24T07:29:36.161Z,44.33
2017-01-24T07:30:16.817Z,44.13
2017-01-24T07:30:57.459Z,44.33
2017-01-24T07:31:38.108Z,44.43
2017-01-24T07:32:18.831Z,44.33
2017-01-24T07:32:59.470Z,44.33
2017-01-24T07:33:40.119Z,44.33
2017-01-24T07:34:20.755Z,44.33
2017-01-24T07:35:01.381Z,44.23
2017-01-24T07:35:42.009Z,44.04
2017-01-24T07:36:22.752Z,44.04
2017-01-24T07:37:03.394Z,43.85
2017-01-24T07:37:44.037Z,44.13
2017-01-24T07:38:24.698Z,44.13
2017-01-24T07:39:05.320Z,44.13
2017-01-24T07:39:45.975Z,43.85
2017-01-24T07:40:26.652Z,44.13
2017-01-24T07:41:07.280Z,44.13
2017-01-24T07:41:47.912Z,44.13
2017-01-24T07:42:28.536Z,44.23
2017-01-24T07:43:09.164Z,44.23
2017-01-24T07:43:49.811Z,44.13
2017-01-24T07:44:30.453Z,44.23
2017-01-24T07:45:11.056Z,44.23
2017-01-24T07:45:51.686Z,44.23
2017-01-24T07:46:32.319Z,44.33
2017-01-24T07:47:12.946Z,44.43
2017-01-24T07:47:54.414Z,44.33
2017-01-24T07:48:35.053Z,44.13
2017-01-24T07:49:15.686Z,44.33
2017-01-24T07:49:56.315Z,44.23
2017-01-24T07:50:36.971Z,44.33
2017-01-24T07:51:17.607Z,44.33
2017-01-24T07:51:58.317Z,44.13
2017-01-24T07:52:38.950Z,44.33
2017-01-24T07:53:19.618Z,44.23
2017-01-24T07:54:00.216Z,44.23
2017-01-24T07:54:40.848Z,44.33
2017-01-24T07:55:21.497Z,44.33
2017-01-24T07:56:02.144Z,44.23
2017-01-24T07:56:42.791Z,44.23
2017-01-24T07:57:23.417Z,44.04
2017-01-24T07:58:04.044Z,44.04
2017-01-24T07:58:44.692Z,44.23
2017-01-24T07:59:25.312Z,44.13
2017-01-24T08:00:06.061Z,44.13
2017-01-24T08:00:46.689Z,44.13
2017-01-24T08:01:27.319Z,44.52
2017-01-24T08:02:07.963Z,44.71
2017-01-24T08:02:48.609Z,44.71
2017-01-24T08:03:29.235Z,44.62
2017-01-24T08:04:09.896Z,44.62
2017-01-24T08:04:50.532Z,44.52
2017-01-24T08:05:31.171Z,44.62
2017-01-24T08:06:11.807Z,44.71
2017-01-24T08:06:52.431Z,44.62
2017-01-24T08:07:33.051Z,44.43
2017-01-24T08:08:13.695Z,44.43
2017-01-24T08:08:54.349Z,44.52
2017-01-24T08:09:34.979Z,44.52
2017-01-24T08:10:15.608Z,44.52
2017-01-24T08:10:56.257Z,44.43
2017-01-24T08:11:36.886Z,44.43
2017-01-24T08:12:17.580Z,44.52
2017-01-24T08:12:58.211Z,44.62
2017-01-24T08:13:38.854Z,44.43
2017-01-24T08:14:19.526Z,44.52
2017-01-24T08:15:00.176Z,44.52
2017-01-24T08:15:40.812Z,44.33
2017-01-24T08:16:21.503Z,44.43
2017-01-24T08:17:02.154Z,44.33
2017-01-24T08:17:42.811Z,44.33
2017-01-24T08:18:23.454Z,44.43
2017-01-24T08:19:04.091Z,44.43
2017-01-24T08:19:44.727Z,44.52
2017-01-24T08:20:25.388Z,44.43
2017-01-24T08:21:06.008Z,44.43
2017-01-24T08:21:46.645Z,44.43
2017-01-24T08:22:27.289Z,44.43
2017-01-24T08:23:07.923Z,44.43
2017-01-24T08:23:48.554Z,44.43
2017-01-24T08:24:29.203Z,44.52
2017-01-24T08:25:09.846Z,44.33
2017-01-24T08:25:50.476Z,44.52
2017-01-24T08:26:31.109Z,44.33
2017-01-24T08:27:11.739Z,44.52
2017-01-24T08:27:52.420Z,44.43
2017-01-24T08:28:33.060Z,44.43
2017-01-24T08:29:13.684Z,44.33
2017-01-24T08:29:54.337Z,44.52
2017-01-24T08:30:34.976Z,44.33
2017-01-24T08:31:15.611Z,44.43
2017-01-24T08:31:56.285Z,44.52
2017-01-24T08:32:36.934Z,44.52
2017-01-24T08:33:17.583Z,44.43
2017-01-24T08:33:58.275Z,44.43
2017-01-24T08:34:38.895Z,44.52
2017-01-24T08:35:19.547Z,44.52
2017-01-24T08:36:00.200Z,44.43
2017-01-24T08:36:40.822Z,44.52
2017-01-24T08:37:21.464Z,44.71
2017-01-24T08:38:02.122Z,44.52
2017-01-24T08:38:42.752Z,44.43
2017-01-24T08:39:23.374Z,44.43
2017-01-24T08:40:04.008Z,44.52
2017-01-24T08:40:44.668Z,44.43
2017-01-24T08:41:25.290Z,44.43
2017-01-24T08:42:05.923Z,44.52
2017-01-24T08:42:46.604Z,44.52
2017-01-24T08:43:27.231Z,44.43
2017-01-24T08:44:07.845Z,44.52
2017-01-24T08:44:48.520Z,44.52
2017-01-24T08:45:29.148Z,44.62